ANA110 RJTT-KJFK
Flight info
| Callsign | ANA110 |
|---|---|
| Flight time | N/A |
| Altitude | 33000 |
| Route | INUBO Y808 NOLAX Y812 ADNAP OTR5 KALNA 43N160E 47N170E 50N180E/N0483F350 53N170W 56N160W DCT CJAYY DCT 57N140W 56N130W DCT HOWSE/N0478F370 DCT ANTID DCT ODGOV DCT WHIST DCT 49N100W DCT KP21C DCT KP15G DCT KP06K DCT KP84Q DCT JHW Q476 WLKES PUCKY1 |
| Aircraft | B77W/H-SDE1E2E3FGHIJ2J3J4J5M1RWXY/LB1D1 |
Departure
| Time | N/A |
|---|---|
| Airport | Tokyo Haneda International Airport (RJTT) |
Arrival
| Time | 2026-05-04 04:40 |
|---|---|
| Airport | John F. Kennedy International Airport (KJFK) |
| Time | Latitude | Longitude | Altitude | Speed | Heading |
|---|---|---|---|---|---|
| 2026-05-04 02:17 | 48.06930 | -96.18946 | 36509 ft | 539 kts | 109° |
| 2026-05-04 02:17 | 48.05632 | -96.13715 | 36468 ft | 535 kts | 109° |
| 2026-05-04 02:17 | 48.03063 | -96.03398 | 36508 ft | 532 kts | 109° |
| 2026-05-04 02:18 | 48.00480 | -95.93071 | 36533 ft | 530 kts | 109° |
| 2026-05-04 02:18 | 47.97891 | -95.82760 | 36527 ft | 530 kts | 109° |
| 2026-05-04 02:19 | 47.95293 | -95.72466 | 36549 ft | 531 kts | 109° |
| 2026-05-04 02:19 | 47.92697 | -95.62225 | 36549 ft | 532 kts | 109° |
| 2026-05-04 02:20 | 47.90071 | -95.51911 | 36549 ft | 533 kts | 109° |
| 2026-05-04 02:20 | 47.87428 | -95.41580 | 36538 ft | 534 kts | 109° |
| 2026-05-04 02:21 | 47.84774 | -95.31253 | 36546 ft | 534 kts | 109° |
| 2026-05-04 02:21 | 47.82129 | -95.21004 | 36536 ft | 534 kts | 109° |
| 2026-05-04 02:22 | 47.79458 | -95.10703 | 36545 ft | 534 kts | 109° |
| 2026-05-04 02:22 | 47.76779 | -95.00417 | 36564 ft | 533 kts | 109° |
| 2026-05-04 02:23 | 47.74092 | -94.90147 | 36568 ft | 533 kts | 110° |
| 2026-05-04 02:23 | 47.71399 | -94.79897 | 36552 ft | 532 kts | 110° |
| 2026-05-04 02:24 | 47.68703 | -94.69679 | 36568 ft | 531 kts | 110° |
| 2026-05-04 02:24 | 47.66020 | -94.59560 | 36580 ft | 530 kts | 110° |
| 2026-05-04 02:25 | 47.63316 | -94.49400 | 36554 ft | 530 kts | 110° |
| 2026-05-04 02:25 | 47.60604 | -94.39256 | 36585 ft | 529 kts | 110° |
| 2026-05-04 02:26 | 47.57886 | -94.29136 | 36596 ft | 529 kts | 110° |
| 2026-05-04 02:26 | 47.55179 | -94.19094 | 36583 ft | 529 kts | 110° |
| 2026-05-04 02:27 | 47.52446 | -94.08997 | 36594 ft | 529 kts | 110° |
| 2026-05-04 02:27 | 47.49665 | -93.98932 | 36605 ft | 529 kts | 113° |
| 2026-05-04 02:28 | 47.46338 | -93.89225 | 36622 ft | 529 kts | 116° |
| 2026-05-04 02:28 | 47.42933 | -93.79669 | 36621 ft | 530 kts | 116° |
| 2026-05-04 02:29 | 47.39516 | -93.70037 | 36634 ft | 529 kts | 116° |
| 2026-05-04 02:29 | 47.36114 | -93.60395 | 36642 ft | 530 kts | 116° |
| 2026-05-04 02:30 | 47.32712 | -93.50759 | 36632 ft | 530 kts | 116° |
| 2026-05-04 02:30 | 47.29304 | -93.41146 | 36657 ft | 530 kts | 116° |
| 2026-05-04 02:31 | 47.25905 | -93.31596 | 36661 ft | 530 kts | 116° |
| 2026-05-04 02:31 | 47.22469 | -93.21983 | 36681 ft | 531 kts | 116° |
| 2026-05-04 02:32 | 47.19023 | -93.12375 | 36659 ft | 532 kts | 116° |
| 2026-05-04 02:32 | 47.15565 | -93.02771 | 36660 ft | 532 kts | 116° |
| 2026-05-04 02:33 | 47.12122 | -92.93243 | 36669 ft | 531 kts | 116° |
| 2026-05-04 02:33 | 47.08651 | -92.83669 | 36684 ft | 532 kts | 116° |
| 2026-05-04 02:34 | 47.05166 | -92.74091 | 36706 ft | 532 kts | 116° |
| 2026-05-04 02:34 | 47.01671 | -92.64520 | 36685 ft | 532 kts | 116° |
| 2026-05-04 02:35 | 46.98167 | -92.54962 | 36694 ft | 533 kts | 117° |
| 2026-05-04 02:35 | 46.94679 | -92.45477 | 36676 ft | 533 kts | 117° |
| 2026-05-04 02:36 | 46.91160 | -92.35945 | 36676 ft | 532 kts | 117° |
| 2026-05-04 02:36 | 46.87639 | -92.26441 | 36671 ft | 531 kts | 117° |
| 2026-05-04 02:37 | 46.84114 | -92.16960 | 36683 ft | 530 kts | 117° |
| 2026-05-04 02:37 | 46.80612 | -92.07574 | 36657 ft | 530 kts | 117° |
| 2026-05-04 02:38 | 46.77081 | -91.98142 | 36657 ft | 529 kts | 117° |
| 2026-05-04 02:38 | 46.73546 | -91.88733 | 36646 ft | 529 kts | 117° |
| 2026-05-04 02:39 | 46.70603 | -91.80925 | 36693 ft | 528 kts | 117° |
| 2026-05-04 02:39 | 46.66485 | -91.70035 | 36693 ft | 528 kts | 117° |
| 2026-05-04 02:40 | 46.62931 | -91.60674 | 36715 ft | 529 kts | 117° |
| 2026-05-04 02:40 | 46.59365 | -91.51312 | 36697 ft | 529 kts | 117° |
| 2026-05-04 02:41 | 46.56396 | -91.43543 | 36685 ft | 529 kts | 117° |
| 2026-05-04 02:41 | 46.52821 | -91.34218 | 36689 ft | 528 kts | 118° |
| 2026-05-04 02:42 | 46.49242 | -91.24914 | 36695 ft | 528 kts | 118° |
| 2026-05-04 02:42 | 46.45685 | -91.15696 | 36714 ft | 528 kts | 118° |
| 2026-05-04 02:43 | 46.42087 | -91.06408 | 36713 ft | 528 kts | 118° |
| 2026-05-04 02:43 | 46.38489 | -90.97149 | 36713 ft | 528 kts | 118° |
| 2026-05-04 02:44 | 46.34883 | -90.87901 | 36703 ft | 527 kts | 118° |
| 2026-05-04 02:44 | 46.31275 | -90.78679 | 36748 ft | 526 kts | 118° |
| 2026-05-04 02:45 | 46.27685 | -90.69533 | 36727 ft | 526 kts | 118° |
| 2026-05-04 02:45 | 46.24066 | -90.60344 | 36733 ft | 526 kts | 118° |
| 2026-05-04 02:46 | 46.20437 | -90.51162 | 36729 ft | 526 kts | 118° |
| 2026-05-04 02:46 | 46.16806 | -90.42006 | 36711 ft | 526 kts | 118° |
| 2026-05-04 02:47 | 46.13197 | -90.32931 | 36739 ft | 525 kts | 119° |
| 2026-05-04 02:47 | 46.09557 | -90.23812 | 36737 ft | 525 kts | 119° |
| 2026-05-04 02:48 | 46.05910 | -90.14702 | 36741 ft | 525 kts | 119° |
| 2026-05-04 02:48 | 46.02259 | -90.05608 | 36741 ft | 525 kts | 119° |
| 2026-05-04 02:49 | 45.98835 | -89.96433 | 36747 ft | 523 kts | 112° |
| 2026-05-04 02:49 | 45.95992 | -89.86814 | 36729 ft | 523 kts | 111° |
| 2026-05-04 02:50 | 45.93180 | -89.77189 | 36732 ft | 522 kts | 111° |
| 2026-05-04 02:50 | 45.90334 | -89.67598 | 36733 ft | 522 kts | 111° |
| 2026-05-04 02:51 | 45.87477 | -89.58087 | 36733 ft | 522 kts | 112° |
| 2026-05-04 02:51 | 45.84588 | -89.48526 | 36736 ft | 522 kts | 112° |
| 2026-05-04 02:52 | 45.81690 | -89.38969 | 36735 ft | 523 kts | 112° |
| 2026-05-04 02:52 | 45.78786 | -89.29422 | 36735 ft | 523 kts | 112° |
| 2026-05-04 02:53 | 45.75892 | -89.19940 | 36750 ft | 523 kts | 112° |
| 2026-05-04 02:53 | 45.72971 | -89.10407 | 36733 ft | 523 kts | 112° |
| 2026-05-04 02:54 | 45.70043 | -89.00887 | 36739 ft | 523 kts | 112° |
| 2026-05-04 02:54 | 45.67108 | -88.91379 | 36734 ft | 523 kts | 112° |
| 2026-05-04 02:55 | 45.62710 | -88.77200 | 36748 ft | 523 kts | 112° |
| 2026-05-04 02:56 | 45.59754 | -88.67710 | 36739 ft | 523 kts | 112° |
| 2026-05-04 02:56 | 45.56788 | -88.58227 | 36715 ft | 523 kts | 113° |
| 2026-05-04 02:57 | 45.53814 | -88.48754 | 36722 ft | 523 kts | 113° |
| 2026-05-04 02:57 | 45.50855 | -88.39360 | 36736 ft | 523 kts | 113° |
| 2026-05-04 02:58 | 45.47864 | -88.29903 | 36733 ft | 524 kts | 113° |
| 2026-05-04 02:58 | 45.44863 | -88.20447 | 36722 ft | 524 kts | 113° |
| 2026-05-04 02:59 | 45.41850 | -88.10988 | 36715 ft | 524 kts | 113° |
| 2026-05-04 02:59 | 45.38851 | -88.01607 | 36729 ft | 525 kts | 113° |
| 2026-05-04 03:00 | 45.35823 | -87.92172 | 36695 ft | 524 kts | 113° |
| 2026-05-04 03:00 | 45.32789 | -87.82750 | 36715 ft | 524 kts | 114° |
| 2026-05-04 03:01 | 45.29750 | -87.73347 | 36734 ft | 523 kts | 114° |
| 2026-05-04 03:01 | 45.26727 | -87.64025 | 36748 ft | 523 kts | 114° |
| 2026-05-04 03:02 | 45.23678 | -87.54659 | 36738 ft | 522 kts | 114° |
| 2026-05-04 03:02 | 45.20626 | -87.45318 | 36736 ft | 522 kts | 114° |
| 2026-05-04 03:03 | 45.17571 | -87.36000 | 36736 ft | 521 kts | 114° |
| 2026-05-04 03:03 | 45.14529 | -87.26755 | 36728 ft | 521 kts | 114° |
| 2026-05-04 03:04 | 45.11461 | -87.17462 | 36734 ft | 521 kts | 114° |
| 2026-05-04 03:04 | 45.08381 | -87.08166 | 36747 ft | 522 kts | 114° |
| 2026-05-04 03:05 | 45.05290 | -86.98869 | 36747 ft | 523 kts | 114° |
| 2026-05-04 03:05 | 45.02206 | -86.89627 | 36759 ft | 524 kts | 114° |
| 2026-05-04 03:06 | 44.99088 | -86.80315 | 36752 ft | 525 kts | 114° |
| 2026-05-04 03:06 | 44.95958 | -86.71001 | 36753 ft | 526 kts | 114° |
| 2026-05-04 03:07 | 44.92811 | -86.61668 | 36743 ft | 526 kts | 114° |
| 2026-05-04 03:07 | 44.89680 | -86.52418 | 36762 ft | 526 kts | 114° |
| 2026-05-04 03:08 | 44.86519 | -86.43108 | 36755 ft | 527 kts | 114° |
| 2026-05-04 03:08 | 44.83348 | -86.33802 | 36755 ft | 526 kts | 114° |
| 2026-05-04 03:09 | 44.80172 | -86.24516 | 36734 ft | 526 kts | 114° |
| 2026-05-04 03:09 | 44.76991 | -86.15243 | 36748 ft | 526 kts | 115° |
| 2026-05-04 03:10 | 44.73825 | -86.06049 | 36738 ft | 526 kts | 115° |
| 2026-05-04 03:10 | 44.70632 | -85.96807 | 36733 ft | 525 kts | 115° |
| 2026-05-04 03:11 | 44.67432 | -85.87576 | 36725 ft | 525 kts | 115° |
| 2026-05-04 03:11 | 44.64227 | -85.78365 | 36718 ft | 525 kts | 115° |
| 2026-05-04 03:12 | 44.61037 | -85.69228 | 36714 ft | 525 kts | 115° |
| 2026-05-04 03:12 | 44.57820 | -85.60041 | 36712 ft | 525 kts | 115° |
| 2026-05-04 03:13 | 44.54597 | -85.50869 | 36725 ft | 525 kts | 115° |
| 2026-05-04 03:13 | 44.51365 | -85.41705 | 36734 ft | 524 kts | 115° |
| 2026-05-04 03:14 | 44.48126 | -85.32550 | 36757 ft | 524 kts | 115° |
| 2026-05-04 03:14 | 44.44904 | -85.23474 | 36768 ft | 524 kts | 115° |
| 2026-05-04 03:15 | 44.41652 | -85.14343 | 36775 ft | 524 kts | 115° |
| 2026-05-04 03:15 | 44.38393 | -85.05224 | 36784 ft | 524 kts | 115° |
| 2026-05-04 03:16 | 44.35128 | -84.96120 | 36797 ft | 524 kts | 116° |
| 2026-05-04 03:16 | 44.31878 | -84.87085 | 36780 ft | 524 kts | 116° |
| 2026-05-04 03:17 | 44.28603 | -84.78011 | 36800 ft | 523 kts | 116° |
| 2026-05-04 03:17 | 44.25324 | -84.68958 | 36813 ft | 523 kts | 116° |
| 2026-05-04 03:18 | 44.22037 | -84.59912 | 36835 ft | 523 kts | 116° |
| 2026-05-04 03:18 | 44.18767 | -84.50939 | 36828 ft | 523 kts | 116° |
| 2026-05-04 03:19 | 44.15464 | -84.41909 | 36832 ft | 523 kts | 116° |
| 2026-05-04 03:19 | 44.12155 | -84.32888 | 36811 ft | 523 kts | 116° |
| 2026-05-04 03:20 | 44.08834 | -84.23866 | 36808 ft | 524 kts | 116° |
| 2026-05-04 03:20 | 44.05531 | -84.14920 | 36815 ft | 524 kts | 116° |
| 2026-05-04 03:21 | 44.02195 | -84.05911 | 36810 ft | 524 kts | 116° |
| 2026-05-04 03:21 | 43.98868 | -83.96891 | 36816 ft | 524 kts | 115° |
| 2026-05-04 03:22 | 43.95732 | -83.87752 | 36819 ft | 525 kts | 114° |
| 2026-05-04 03:22 | 43.92679 | -83.78636 | 36812 ft | 525 kts | 114° |
| 2026-05-04 03:23 | 43.89576 | -83.69481 | 36798 ft | 524 kts | 115° |
| 2026-05-04 03:23 | 43.86443 | -83.60353 | 36817 ft | 524 kts | 115° |
| 2026-05-04 03:24 | 43.83297 | -83.51247 | 36817 ft | 523 kts | 115° |
| 2026-05-04 03:24 | 43.80170 | -83.42223 | 36807 ft | 523 kts | 115° |
| 2026-05-04 03:25 | 43.77022 | -83.33163 | 36819 ft | 522 kts | 115° |
| 2026-05-04 03:25 | 43.73869 | -83.24118 | 36824 ft | 522 kts | 115° |
| 2026-05-04 03:26 | 43.70714 | -83.15093 | 36834 ft | 521 kts | 115° |
| 2026-05-04 03:26 | 43.67576 | -83.06146 | 36817 ft | 521 kts | 116° |
| 2026-05-04 03:27 | 43.64407 | -82.97144 | 36814 ft | 521 kts | 116° |
| 2026-05-04 03:27 | 43.61233 | -82.88156 | 36828 ft | 521 kts | 116° |
| 2026-05-04 03:28 | 43.58052 | -82.79177 | 36821 ft | 521 kts | 116° |
| 2026-05-04 03:28 | 43.54889 | -82.70277 | 36837 ft | 521 kts | 116° |
| 2026-05-04 03:29 | 43.51692 | -82.61313 | 36827 ft | 521 kts | 116° |
| 2026-05-04 03:29 | 43.48491 | -82.52364 | 36836 ft | 521 kts | 116° |
| 2026-05-04 03:30 | 43.45282 | -82.43425 | 36838 ft | 521 kts | 116° |
| 2026-05-04 03:30 | 43.42091 | -82.34560 | 36847 ft | 520 kts | 116° |
| 2026-05-04 03:31 | 43.38870 | -82.25645 | 36844 ft | 520 kts | 116° |
| 2026-05-04 03:31 | 43.35648 | -82.16752 | 36830 ft | 520 kts | 116° |
| 2026-05-04 03:32 | 43.32420 | -82.07874 | 36846 ft | 519 kts | 117° |
| 2026-05-04 03:32 | 43.29211 | -81.99075 | 36860 ft | 519 kts | 117° |
| 2026-05-04 03:33 | 43.25973 | -81.90225 | 36864 ft | 519 kts | 117° |
| 2026-05-04 03:33 | 43.22727 | -81.81379 | 36866 ft | 519 kts | 117° |
| 2026-05-04 03:34 | 43.19472 | -81.72538 | 36872 ft | 519 kts | 117° |
| 2026-05-04 03:34 | 43.16211 | -81.63710 | 36882 ft | 520 kts | 117° |
| 2026-05-04 03:35 | 43.12960 | -81.54933 | 36882 ft | 520 kts | 117° |
| 2026-05-04 03:35 | 43.09683 | -81.46118 | 36877 ft | 520 kts | 117° |
| 2026-05-04 03:36 | 43.06396 | -81.37300 | 36887 ft | 520 kts | 117° |
| 2026-05-04 03:36 | 43.03103 | -81.28495 | 36896 ft | 520 kts | 117° |
| 2026-05-04 03:37 | 42.99823 | -81.19752 | 36896 ft | 521 kts | 118° |
| 2026-05-04 03:37 | 42.96511 | -81.10953 | 36894 ft | 521 kts | 118° |
| 2026-05-04 03:38 | 42.93193 | -81.02162 | 36894 ft | 521 kts | 118° |
| 2026-05-04 03:38 | 42.89868 | -80.93382 | 36898 ft | 521 kts | 118° |
| 2026-05-04 03:39 | 42.86560 | -80.84673 | 36910 ft | 521 kts | 118° |
| 2026-05-04 03:39 | 42.83223 | -80.75914 | 36906 ft | 520 kts | 118° |
| 2026-05-04 03:40 | 42.79880 | -80.67168 | 36918 ft | 520 kts | 118° |
| 2026-05-04 03:40 | 42.76531 | -80.58431 | 36917 ft | 521 kts | 118° |
| 2026-05-04 03:41 | 42.73196 | -80.49758 | 36922 ft | 521 kts | 119° |
| 2026-05-04 03:41 | 42.69827 | -80.41022 | 36928 ft | 522 kts | 119° |
| 2026-05-04 03:42 | 42.66448 | -80.32290 | 36926 ft | 522 kts | 119° |
| 2026-05-04 03:42 | 42.63061 | -80.23560 | 36929 ft | 522 kts | 119° |
| 2026-05-04 03:43 | 42.59666 | -80.14839 | 36935 ft | 523 kts | 119° |
| 2026-05-04 03:43 | 42.56286 | -80.06180 | 36926 ft | 523 kts | 119° |
| 2026-05-04 03:44 | 42.52875 | -79.97470 | 36942 ft | 523 kts | 120° |
| 2026-05-04 03:44 | 42.49044 | -79.89104 | 36939 ft | 524 kts | 130° |
| 2026-05-04 03:45 | 42.44331 | -79.81488 | 36948 ft | 532 kts | 133° |
| 2026-05-04 03:45 | 42.39542 | -79.73845 | 36958 ft | 539 kts | 133° |
| 2026-05-04 03:46 | 42.34692 | -79.66026 | 36953 ft | 545 kts | 132° |
| 2026-05-04 03:46 | 42.29831 | -79.58146 | 36963 ft | 547 kts | 132° |
| 2026-05-04 03:47 | 42.24951 | -79.50247 | 36969 ft | 548 kts | 132° |
| 2026-05-04 03:47 | 42.20094 | -79.42413 | 36974 ft | 548 kts | 132° |
| 2026-05-04 03:48 | 42.15207 | -79.34556 | 36968 ft | 546 kts | 133° |
| 2026-05-04 03:48 | 42.10328 | -79.26735 | 36950 ft | 544 kts | 133° |
| 2026-05-04 03:49 | 42.05461 | -79.18955 | 36959 ft | 542 kts | 133° |
| 2026-05-04 03:49 | 42.00633 | -79.11259 | 36984 ft | 541 kts | 133° |
| 2026-05-04 03:50 | 41.95773 | -79.03529 | 36985 ft | 541 kts | 133° |
| 2026-05-04 03:50 | 41.90907 | -78.95811 | 36993 ft | 541 kts | 133° |
| 2026-05-04 03:51 | 41.86034 | -78.88099 | 36985 ft | 542 kts | 133° |
| 2026-05-04 03:51 | 41.81186 | -78.80449 | 37006 ft | 542 kts | 133° |
| 2026-05-04 03:52 | 41.76291 | -78.72744 | 36982 ft | 543 kts | 133° |
| 2026-05-04 03:52 | 41.71384 | -78.65037 | 36981 ft | 544 kts | 133° |
| 2026-05-04 03:53 | 41.66462 | -78.57330 | 37000 ft | 544 kts | 134° |
| 2026-05-04 03:53 | 41.61572 | -78.49692 | 36968 ft | 545 kts | 134° |
| 2026-05-04 03:54 | 41.56639 | -78.42007 | 37009 ft | 545 kts | 134° |
| 2026-05-04 03:54 | 41.51699 | -78.34329 | 37012 ft | 545 kts | 134° |
| 2026-05-04 03:55 | 41.46753 | -78.26662 | 37011 ft | 545 kts | 134° |
| 2026-05-04 03:55 | 41.41807 | -78.19013 | 37021 ft | 545 kts | 134° |
| 2026-05-04 03:56 | 41.36889 | -78.11428 | 36991 ft | 545 kts | 134° |
| 2026-05-04 03:56 | 41.31935 | -78.03807 | 37014 ft | 544 kts | 134° |
| 2026-05-04 03:57 | 41.26974 | -77.96196 | 37010 ft | 544 kts | 134° |
| 2026-05-04 03:57 | 41.22019 | -77.88610 | 37022 ft | 544 kts | 134° |
| 2026-05-04 03:58 | 41.14606 | -77.77302 | 37015 ft | 544 kts | 134° |
| 2026-05-04 03:58 | 41.09631 | -77.69735 | 37009 ft | 545 kts | 135° |
| 2026-05-04 03:59 | 41.04645 | -77.62171 | 37020 ft | 545 kts | 135° |
| 2026-05-04 03:59 | 40.99653 | -77.54614 | 37032 ft | 546 kts | 135° |
| 2026-05-04 04:00 | 40.94678 | -77.47106 | 37033 ft | 546 kts | 135° |
| 2026-05-04 04:00 | 40.89666 | -77.39557 | 37036 ft | 546 kts | 135° |
| 2026-05-04 04:01 | 40.84647 | -77.32017 | 37016 ft | 546 kts | 135° |
| 2026-05-04 04:01 | 40.79625 | -77.24493 | 37036 ft | 546 kts | 135° |
| 2026-05-04 04:02 | 40.74636 | -77.17037 | 37030 ft | 546 kts | 135° |
| 2026-05-04 04:02 | 40.69602 | -77.09531 | 37036 ft | 546 kts | 135° |
| 2026-05-04 04:03 | 40.64564 | -77.02038 | 37036 ft | 546 kts | 135° |
| 2026-05-04 04:03 | 40.59528 | -76.94565 | 37011 ft | 546 kts | 136° |
| 2026-05-04 04:04 | 40.54523 | -76.87158 | 37026 ft | 545 kts | 136° |
| 2026-05-04 04:04 | 40.49484 | -76.79718 | 37023 ft | 545 kts | 136° |
| 2026-05-04 04:05 | 40.44439 | -76.72288 | 37017 ft | 545 kts | 136° |
| 2026-05-04 04:05 | 40.39389 | -76.64869 | 37016 ft | 545 kts | 136° |
| 2026-05-04 04:06 | 40.34337 | -76.57465 | 36987 ft | 545 kts | 137° |
| 2026-05-04 04:06 | 40.29319 | -76.50127 | 37027 ft | 544 kts | 137° |
| 2026-05-04 04:07 | 40.24262 | -76.42753 | 37058 ft | 545 kts | 137° |
| 2026-05-04 04:07 | 40.19187 | -76.35370 | 37059 ft | 547 kts | 137° |
| 2026-05-04 04:08 | 40.14090 | -76.27972 | 37039 ft | 548 kts | 137° |
| 2026-05-04 04:08 | 40.08984 | -76.20578 | 37062 ft | 548 kts | 137° |
| 2026-05-04 04:09 | 40.03907 | -76.13243 | 37048 ft | 548 kts | 138° |
| 2026-05-04 04:09 | 39.98774 | -76.05847 | 37054 ft | 551 kts | 138° |
| 2026-05-04 04:10 | 39.93620 | -75.98436 | 37061 ft | 552 kts | 138° |
| 2026-05-04 04:10 | 39.88449 | -75.91014 | 37064 ft | 554 kts | 138° |
| 2026-05-04 04:11 | 39.83298 | -75.83643 | 37061 ft | 555 kts | 139° |
| 2026-05-04 04:11 | 39.78093 | -75.76216 | 37055 ft | 555 kts | 138° |
| 2026-05-04 04:12 | 39.72886 | -75.68804 | 37070 ft | 556 kts | 139° |
| 2026-05-04 04:12 | 39.67661 | -75.61384 | 37072 ft | 557 kts | 139° |
| 2026-05-04 04:13 | 39.62427 | -75.53969 | 37070 ft | 557 kts | 139° |
| 2026-05-04 04:13 | 39.57229 | -75.46621 | 37069 ft | 557 kts | 139° |
| 2026-05-04 04:14 | 39.51986 | -75.39228 | 37054 ft | 557 kts | 139° |
| 2026-05-04 04:14 | 39.46749 | -75.31863 | 37066 ft | 557 kts | 139° |
| 2026-05-04 04:15 | 39.41498 | -75.24494 | 37068 ft | 557 kts | 139° |
| 2026-05-04 04:15 | 39.36279 | -75.17188 | 37083 ft | 557 kts | 139° |
| 2026-05-04 04:16 | 39.31032 | -75.09855 | 36958 ft | 551 kts | 139° |
| 2026-05-04 04:16 | 39.28440 | -75.06237 | 36706 ft | 546 kts | 139° |
| 2026-05-04 04:16 | 39.25872 | -75.02658 | 36484 ft | 541 kts | 140° |
| 2026-05-04 04:17 | 39.23319 | -74.99109 | 36284 ft | 538 kts | 140° |
| 2026-05-04 04:17 | 39.20781 | -74.95584 | 36051 ft | 535 kts | 141° |
| 2026-05-04 04:17 | 39.18402 | -74.91895 | 35657 ft | 544 kts | 129° |
| 2026-05-04 04:17 | 39.16762 | -74.87498 | 35146 ft | 562 kts | 111° |
| 2026-05-04 04:18 | 39.16069 | -74.82512 | 34503 ft | 572 kts | 94° |
| 2026-05-04 04:18 | 39.16426 | -74.77387 | 33453 ft | 578 kts | 75° |
| 2026-05-04 04:18 | 39.17840 | -74.72579 | 32390 ft | 573 kts | 58° |
| 2026-05-04 04:18 | 39.20061 | -74.68390 | 31329 ft | 560 kts | 40° |
| 2026-05-04 04:19 | 39.22959 | -74.65203 | 30577 ft | 538 kts | 28° |
| 2026-05-04 04:19 | 39.25972 | -74.62307 | 30179 ft | 540 kts | 31° |
| 2026-05-04 04:19 | 39.28869 | -74.59247 | 29372 ft | 537 kts | 33° |
| 2026-05-04 04:19 | 39.31682 | -74.56133 | 28655 ft | 529 kts | 34° |
| 2026-05-04 04:20 | 39.34412 | -74.53096 | 27971 ft | 521 kts | 33° |
| 2026-05-04 04:20 | 39.37153 | -74.50094 | 27282 ft | 513 kts | 33° |
| 2026-05-04 04:20 | 39.39864 | -74.47164 | 26771 ft | 503 kts | 32° |
| 2026-05-04 04:20 | 39.42534 | -74.44286 | 26181 ft | 496 kts | 33° |
| 2026-05-04 04:21 | 39.45165 | -74.41428 | 25530 ft | 491 kts | 33° |
| 2026-05-04 04:21 | 39.47749 | -74.38600 | 25211 ft | 484 kts | 33° |
| 2026-05-04 04:21 | 39.50332 | -74.35774 | 25074 ft | 486 kts | 33° |
| 2026-05-04 04:21 | 39.52903 | -74.32958 | 25034 ft | 481 kts | 33° |
| 2026-05-04 04:22 | 39.55377 | -74.30238 | 24498 ft | 462 kts | 33° |
| 2026-05-04 04:22 | 39.57782 | -74.27591 | 23370 ft | 447 kts | 33° |
| 2026-05-04 04:22 | 39.60138 | -74.25011 | 22045 ft | 446 kts | 33° |
| 2026-05-04 04:22 | 39.62518 | -74.22409 | 21315 ft | 448 kts | 34° |
| 2026-05-04 04:23 | 39.64888 | -74.19805 | 20736 ft | 445 kts | 34° |
| 2026-05-04 04:23 | 39.67233 | -74.17221 | 20258 ft | 440 kts | 34° |
| 2026-05-04 04:23 | 39.69553 | -74.14661 | 19810 ft | 434 kts | 34° |
| 2026-05-04 04:23 | 39.71816 | -74.12159 | 19175 ft | 417 kts | 34° |
| 2026-05-04 04:24 | 39.74014 | -74.09733 | 18140 ft | 418 kts | 35° |
| 2026-05-04 04:24 | 39.76204 | -74.07324 | 17524 ft | 417 kts | 35° |
| 2026-05-04 04:24 | 39.78412 | -74.04887 | 16913 ft | 414 kts | 36° |
| 2026-05-04 04:24 | 39.80591 | -74.02474 | 16363 ft | 410 kts | 36° |
| 2026-05-04 04:25 | 39.82751 | -74.00082 | 15785 ft | 406 kts | 36° |
| 2026-05-04 04:25 | 39.84932 | -73.97805 | 15202 ft | 397 kts | 30° |
| 2026-05-04 04:25 | 39.87287 | -73.95988 | 14661 ft | 391 kts | 24° |
| 2026-05-04 04:25 | 39.89695 | -73.94393 | 14102 ft | 387 kts | 22° |
| 2026-05-04 04:26 | 39.92097 | -73.92827 | 13513 ft | 385 kts | 23° |
| 2026-05-04 04:26 | 39.94433 | -73.91255 | 12928 ft | 382 kts | 24° |
| 2026-05-04 04:26 | 39.96766 | -73.89633 | 12358 ft | 378 kts | 25° |
| 2026-05-04 04:26 | 39.99059 | -73.88010 | 11808 ft | 372 kts | 25° |
| 2026-05-04 04:27 | 40.01330 | -73.86398 | 11290 ft | 371 kts | 25° |
| 2026-05-04 04:27 | 40.03609 | -73.84864 | 10972 ft | 363 kts | 22° |
| 2026-05-04 04:27 | 40.05807 | -73.83508 | 10775 ft | 336 kts | 21° |
| 2026-05-04 04:27 | 40.07882 | -73.82260 | 10634 ft | 324 kts | 20° |
| 2026-05-04 04:28 | 40.09902 | -73.81051 | 10495 ft | 316 kts | 20° |
| 2026-05-04 04:28 | 40.11848 | -73.79880 | 10359 ft | 309 kts | 20° |
| 2026-05-04 04:28 | 40.13774 | -73.78714 | 10233 ft | 302 kts | 20° |
| 2026-05-04 04:28 | 40.15654 | -73.77569 | 10110 ft | 295 kts | 20° |
| 2026-05-04 04:29 | 40.17504 | -73.76439 | 9924 ft | 291 kts | 20° |
| 2026-05-04 04:29 | 40.19299 | -73.75338 | 9720 ft | 278 kts | 20° |
| 2026-05-04 04:29 | 40.21015 | -73.74282 | 9271 ft | 269 kts | 20° |
| 2026-05-04 04:29 | 40.22686 | -73.73255 | 8933 ft | 262 kts | 20° |
| 2026-05-04 04:30 | 40.24315 | -73.72253 | 8631 ft | 258 kts | 19° |
| 2026-05-04 04:30 | 40.25945 | -73.71254 | 8336 ft | 259 kts | 19° |
| 2026-05-04 04:30 | 40.27562 | -73.70262 | 8038 ft | 261 kts | 19° |
| 2026-05-04 04:30 | 40.29214 | -73.69246 | 7737 ft | 264 kts | 20° |
| 2026-05-04 04:31 | 40.30880 | -73.68221 | 7446 ft | 266 kts | 20° |
| 2026-05-04 04:31 | 40.32562 | -73.67184 | 7129 ft | 269 kts | 20° |
| 2026-05-04 04:31 | 40.34261 | -73.66135 | 6824 ft | 271 kts | 20° |
| 2026-05-04 04:31 | 40.35980 | -73.65073 | 6511 ft | 274 kts | 20° |
| 2026-05-04 04:32 | 40.37694 | -73.64012 | 6242 ft | 270 kts | 20° |
| 2026-05-04 04:32 | 40.39379 | -73.62966 | 5821 ft | 265 kts | 19° |
| 2026-05-04 04:32 | 40.41037 | -73.61937 | 5505 ft | 261 kts | 19° |
| 2026-05-04 04:32 | 40.42632 | -73.60944 | 5184 ft | 255 kts | 19° |
| 2026-05-04 04:33 | 40.44239 | -73.59947 | 4909 ft | 256 kts | 19° |
| 2026-05-04 04:33 | 40.45848 | -73.58949 | 4608 ft | 255 kts | 19° |
| 2026-05-04 04:33 | 40.47450 | -73.57955 | 4309 ft | 254 kts | 19° |
| 2026-05-04 04:33 | 40.49041 | -73.56968 | 4009 ft | 253 kts | 19° |
| 2026-05-04 04:34 | 40.50623 | -73.55985 | 3801 ft | 248 kts | 19° |
| 2026-05-04 04:34 | 40.52133 | -73.55070 | 3641 ft | 227 kts | 12° |
| 2026-05-04 04:34 | 40.53556 | -73.54937 | 3538 ft | 189 kts | 337° |
| 2026-05-04 04:34 | 40.54663 | -73.55642 | 3523 ft | 179 kts | 322° |
| 2026-05-04 04:35 | 40.55605 | -73.56664 | 3375 ft | 173 kts | 304° |
| 2026-05-04 04:35 | 40.56214 | -73.57979 | 3164 ft | 165 kts | 298° |
| 2026-05-04 04:35 | 40.56796 | -73.59257 | 2936 ft | 161 kts | 298° |
| 2026-05-04 04:35 | 40.57356 | -73.60481 | 2738 ft | 152 kts | 298° |
| 2026-05-04 04:36 | 40.57886 | -73.61638 | 2501 ft | 143 kts | 297° |
| 2026-05-04 04:36 | 40.58385 | -73.62736 | 2320 ft | 140 kts | 298° |
| 2026-05-04 04:36 | 40.58893 | -73.63855 | 2170 ft | 144 kts | 298° |
| 2026-05-04 04:36 | 40.59397 | -73.64962 | 1963 ft | 141 kts | 298° |
| 2026-05-04 04:37 | 40.60837 | -73.68129 | 1442 ft | 123 kts | 296° |
| 2026-05-04 04:37 | 40.61270 | -73.69084 | 1278 ft | 122 kts | 296° |
| 2026-05-04 04:38 | 40.61710 | -73.70050 | 1128 ft | 124 kts | 295° |
| 2026-05-04 04:38 | 40.62158 | -73.71039 | 962 ft | 128 kts | 295° |
| 2026-05-04 04:38 | 40.62622 | -73.72066 | 779 ft | 132 kts | 297° |
| 2026-05-04 04:38 | 40.63087 | -73.73090 | 597 ft | 132 kts | 297° |
| 2026-05-04 04:39 | 40.63557 | -73.74131 | 426 ft | 134 kts | 298° |
| 2026-05-04 04:39 | 40.64034 | -73.75176 | 262 ft | 133 kts | 297° |
| 2026-05-04 04:39 | 40.64507 | -73.76214 | 67 ft | 132 kts | 297° |
| 2026-05-04 04:39 | 40.64943 | -73.77193 | 25 ft | 98 kts | 302° |
| 2026-05-04 04:40 | 40.65180 | -73.77712 | 26 ft | 52 kts | 300° |
| 2026-05-04 04:40 | 40.65303 | -73.78012 | 26 ft | 29 kts | 284° |
| 2026-05-04 04:40 | 40.65314 | -73.78220 | 30 ft | 19 kts | 271° |
| 2026-05-04 04:40 | 40.65352 | -73.78376 | 29 ft | 16 kts | 296° |
| 2026-05-04 04:41 | 40.65336 | -73.78466 | 28 ft | 7 kts | 210° |
| 2026-05-04 04:41 | 40.65311 | -73.78467 | 28 ft | 7 kts | 168° |
| 2026-05-04 04:41 | 40.65260 | -73.78375 | 29 ft | 10 kts | 116° |
| 2026-05-04 04:41 | 40.65229 | -73.78294 | 31 ft | 10 kts | 116° |
| 2026-05-04 04:42 | 40.65182 | -73.78249 | 29 ft | 8 kts | 173° |
| 2026-05-04 04:42 | 40.65139 | -73.78276 | 28 ft | 3 kts | 220° |
| 2026-05-04 04:42 | 40.65125 | -73.78291 | 28 ft | 2 kts | 218° |
| 2026-05-04 04:42 | 40.65118 | -73.78298 | 28 ft | 0 kts | 217° |
| 2026-05-04 04:43 | 40.65114 | -73.78302 | 28 ft | 1 kts | 216° |